Time;durP1;ratioP1;P1;durP2;ratioP2;P2;SDS_P1;SDS_P2;PMS_P1;PMS_P2;Temp;Humidity;BMP_temperature;BMP_pressure;BME280_temperature;BME280_humidity;BME280_pressure;Samples;Min_cycle;Max_cycle;Signal;HPM_P1;HPM_P2
2021/03/18 00:00:49;;;;;;;7.40;4.97;;;1.00;99.90;;;;;;5090939;28;20224;-71
2021/03/18 00:03:21;;;;;;;9.13;5.43;;;1.00;99.90;;;;;;5061331;28;20410;-72
2021/03/18 00:05:47;;;;;;;7.27;4.27;;;1.00;99.90;;;;;;5077440;28;20467;-73
2021/03/18 00:08:13;;;;;;;9.17;5.33;;;1.00;99.90;;;;;;5081258;28;20898;-72
2021/03/18 00:10:39;;;;;;;10.20;5.07;;;1.00;99.90;;;;;;5082780;28;20248;-72
2021/03/18 00:13:07;;;;;;;6.20;5.27;;;1.00;99.90;;;;;;5080625;28;20394;-72
2021/03/18 00:15:33;;;;;;;6.23;4.77;;;1.00;99.90;;;;;;5081216;28;20548;-73
2021/03/18 00:17:59;;;;;;;6.77;5.07;;;1.00;99.90;;;;;;5083202;28;20794;-72
2021/03/18 00:20:25;;;;;;;9.00;5.03;;;1.00;99.90;;;;;;5085890;28;20503;-71
2021/03/18 00:22:50;;;;;;;9.30;5.20;;;1.00;99.90;;;;;;5082515;28;20184;-72
2021/03/18 00:25:17;;;;;;;6.60;5.80;;;0.90;99.90;;;;;;5080173;28;20204;-72
2021/03/18 00:27:45;;;;;;;7.67;5.63;;;1.00;99.90;;;;;;5079686;28;20177;-72
2021/03/18 00:30:13;;;;;;;8.60;5.63;;;1.00;99.90;;;;;;5081771;28;20517;-71
2021/03/18 00:32:39;;;;;;;7.40;5.33;;;1.00;99.90;;;;;;5079948;28;20474;-72
2021/03/18 00:35:07;;;;;;;6.63;5.43;;;1.00;99.90;;;;;;5080520;28;20431;-72
2021/03/18 00:37:34;;;;;;;6.20;5.47;;;1.00;99.90;;;;;;5080938;28;20450;-71
2021/03/18 00:40:00;;;;;;;9.03;5.50;;;1.00;99.90;;;;;;5080600;28;20425;-74
2021/03/18 00:42:26;;;;;;;8.07;5.90;;;1.00;99.90;;;;;;5081779;28;20429;-72
2021/03/18 00:44:51;;;;;;;5.13;4.67;;;1.10;99.90;;;;;;5079337;28;20214;-71
2021/03/18 00:47:18;;;;;;;4.60;3.93;;;1.10;99.90;;;;;;5083162;28;20203;-72
2021/03/18 00:49:43;;;;;;;7.30;5.20;;;1.10;99.90;;;;;;5079209;28;20271;-72
2021/03/18 00:52:11;;;;;;;5.33;4.40;;;1.20;99.90;;;;;;5082492;28;20410;-72
2021/03/18 00:54:36;;;;;;;5.60;4.50;;;1.20;99.90;;;;;;5080017;28;20609;-72
2021/03/18 00:57:02;;;;;;;8.97;5.33;;;1.20;99.90;;;;;;5080165;28;20476;-72
2021/03/18 00:59:27;;;;;;;8.53;4.43;;;1.10;99.90;;;;;;5081225;28;20251;-73
2021/03/18 01:01:53;;;;;;;4.87;4.40;;;1.10;99.90;;;;;;5081469;28;20191;-74
2021/03/18 01:04:19;;;;;;;6.07;5.20;;;1.10;99.90;;;;;;5079522;28;20241;-71
2021/03/18 01:06:44;;;;;;;6.40;4.63;;;1.20;99.90;;;;;;5081903;28;20650;-71
2021/03/18 01:09:10;;;;;;;7.17;4.80;;;1.20;99.90;;;;;;5078921;28;20198;-73
2021/03/18 01:11:38;;;;;;;7.30;4.80;;;1.20;99.90;;;;;;5081939;28;20256;-71
2021/03/18 01:14:07;;;;;;;8.80;4.40;;;1.20;99.90;;;;;;5082781;28;20200;-72
2021/03/18 01:16:41;;;;;;;10.97;5.03;;;1.20;99.90;;;;;;5077649;28;20947;-72
2021/03/18 01:19:09;;;;;;;8.23;5.50;;;1.20;99.90;;;;;;5086349;28;20868;-71
2021/03/18 01:21:39;;;;;;;7.40;4.37;;;1.20;99.90;;;;;;5080815;28;20414;-75
2021/03/18 01:24:06;;;;;;;14.40;4.90;;;1.20;99.90;;;;;;5080057;28;20492;-72
2021/03/18 01:26:32;;;;;;;4.33;3.63;;;1.20;99.90;;;;;;5079536;28;20955;-71
2021/03/18 01:28:57;;;;;;;5.13;4.63;;;1.20;99.90;;;;;;5081233;28;20510;-72
2021/03/18 01:31:23;;;;;;;6.20;4.80;;;1.20;99.90;;;;;;5079998;28;20639;-72
2021/03/18 01:33:49;;;;;;;5.50;5.00;;;1.20;99.90;;;;;;5081164;28;20408;-72
2021/03/18 01:36:14;;;;;;;6.90;5.03;;;1.20;99.90;;;;;;5079140;28;20182;-71
2021/03/18 01:38:47;;;;;;;6.30;5.03;;;1.20;99.90;;;;;;5081502;28;20191;-72
2021/03/18 01:41:14;;;;;;;5.43;4.37;;;1.10;99.90;;;;;;5078891;28;20724;-72
2021/03/18 01:43:41;;;;;;;5.63;5.03;;;1.10;99.90;;;;;;5080745;28;20480;-73
2021/03/18 01:46:07;;;;;;;8.00;4.80;;;1.10;99.90;;;;;;5079771;28;20556;-72
2021/03/18 01:48:33;;;;;;;10.90;4.70;;;1.10;99.90;;;;;;5079822;28;20472;-72
2021/03/18 01:51:01;;;;;;;7.87;5.07;;;1.10;99.90;;;;;;5079971;28;20409;-72
2021/03/18 01:53:27;;;;;;;5.83;4.90;;;1.10;99.90;;;;;;5084359;28;20225;-73
2021/03/18 01:55:55;;;;;;;6.63;4.83;;;1.10;99.90;;;;;;5079575;28;20437;-71
2021/03/18 01:58:21;;;;;;;5.00;4.50;;;1.10;99.90;;;;;;5082820;28;20406;-73
2021/03/18 02:00:51;;;;;;;6.60;4.80;;;1.00;99.90;;;;;;5078505;28;20466;-73
2021/03/18 02:03:17;;;;;;;4.90;4.37;;;1.10;99.90;;;;;;5079001;28;20409;-73
2021/03/18 02:05:43;;;;;;;5.37;4.47;;;1.10;99.90;;;;;;5080825;28;20454;-71
2021/03/18 02:08:09;;;;;;;8.33;4.57;;;1.10;99.90;;;;;;5082104;28;20426;-72
2021/03/18 02:10:37;;;;;;;4.60;4.03;;;1.10;99.90;;;;;;5086381;28;20200;-72
2021/03/18 02:13:08;;;;;;;6.20;4.17;;;1.10;99.90;;;;;;5084659;28;20954;-71
2021/03/18 02:15:46;;;;;;;9.67;5.40;;;1.10;99.90;;;;;;5081867;28;20397;-72
2021/03/18 02:18:32;;;;;;;6.57;4.43;;;1.10;99.90;;;;;;5085713;28;20823;-71
2021/03/18 02:21:14;;;;;;;5.93;4.53;;;1.10;99.90;;;;;;5083696;28;20430;-72
2021/03/18 02:23:57;;;;;;;5.40;4.80;;;1.10;99.90;;;;;;5082632;28;20420;-71
2021/03/18 02:26:53;;;;;;;7.10;5.20;;;1.10;99.90;;;;;;5082199;28;20593;-72
2021/03/18 02:29:56;;;;;;;10.70;4.80;;;1.10;99.90;;;;;;5082055;28;20477;-72
2021/03/18 02:32:40;;;;;;;5.50;4.47;;;1.10;99.90;;;;;;5082372;28;20468;-72
2021/03/18 02:35:28;;;;;;;8.77;4.90;;;1.10;99.90;;;;;;5082651;28;20414;-72
2021/03/18 02:38:04;;;;;;;8.17;4.27;;;1.10;99.90;;;;;;5084855;28;20437;-74
2021/03/18 02:40:33;;;;;;;9.63;4.73;;;1.10;99.90;;;;;;5083154;28;20939;-74
2021/03/18 02:43:04;;;;;;;4.63;4.07;;;1.20;99.90;;;;;;5083887;28;20880;-74
2021/03/18 02:45:33;;;;;;;8.73;4.80;;;1.20;99.90;;;;;;5088389;28;20457;-75
2021/03/18 02:48:01;;;;;;;6.00;4.43;;;1.10;99.90;;;;;;5083083;28;20438;-73
2021/03/18 02:50:28;;;;;;;10.30;4.90;;;1.10;99.90;;;;;;5083271;28;20446;-75
2021/03/18 02:52:54;;;;;;;7.10;4.33;;;1.10;99.90;;;;;;5082155;28;20421;-75
2021/03/18 02:55:22;;;;;;;6.73;4.57;;;1.20;99.90;;;;;;5084446;28;20507;-74
2021/03/18 02:57:49;;;;;;;13.93;4.53;;;1.10;99.90;;;;;;5081349;28;20197;-75
2021/03/18 03:00:16;;;;;;;6.77;4.90;;;1.20;99.90;;;;;;5084553;28;20918;-74
2021/03/18 03:02:42;;;;;;;5.53;4.33;;;1.10;99.90;;;;;;5084355;28;20455;-74
2021/03/18 03:05:09;;;;;;;7.13;3.83;;;1.10;99.90;;;;;;5084370;28;20553;-73
2021/03/18 03:07:36;;;;;;;5.50;4.90;;;1.10;99.90;;;;;;5082402;28;20807;-74
2021/03/18 03:10:05;;;;;;;5.00;4.50;;;1.10;99.90;;;;;;5081189;28;20426;-74
2021/03/18 03:12:32;;;;;;;8.83;4.07;;;1.10;99.90;;;;;;5082836;28;20400;-74
2021/03/18 03:14:59;;;;;;;7.90;4.27;;;1.10;99.90;;;;;;5094458;28;20952;-74
2021/03/18 03:17:27;;;;;;;5.10;4.70;;;1.10;99.90;;;;;;5083625;28;20452;-74
2021/03/18 03:19:56;;;;;;;5.30;4.27;;;1.10;99.90;;;;;;5080765;28;20467;-75
2021/03/18 03:22:23;;;;;;;14.80;4.60;;;1.10;99.90;;;;;;5084229;28;20397;-74
2021/03/18 03:24:50;;;;;;;5.97;4.90;;;1.10;99.90;;;;;;5080425;28;20470;-75
2021/03/18 03:27:17;;;;;;;6.20;4.27;;;1.10;99.90;;;;;;5080984;28;20398;-75
2021/03/18 03:29:44;;;;;;;4.87;4.20;;;1.10;99.90;;;;;;5081027;28;20447;-75
2021/03/18 03:32:11;;;;;;;5.03;4.07;;;1.20;99.90;;;;;;5083507;28;20405;-75
2021/03/18 03:34:38;;;;;;;6.93;5.40;;;1.20;99.90;;;;;;5077883;28;20842;-75
2021/03/18 03:37:05;;;;;;;6.70;4.10;;;1.20;99.90;;;;;;5081983;28;20497;-74
2021/03/18 03:39:31;;;;;;;5.37;4.47;;;1.20;99.90;;;;;;5081337;28;20432;-75
2021/03/18 03:41:57;;;;;;;5.33;4.10;;;1.30;99.90;;;;;;5080801;28;20439;-76
2021/03/18 03:44:23;;;;;;;6.63;4.30;;;1.20;99.90;;;;;;5083748;28;20849;-74
2021/03/18 03:46:49;;;;;;;6.17;3.37;;;1.20;99.90;;;;;;5080576;28;20397;-76
2021/03/18 03:49:14;;;;;;;8.70;4.17;;;1.30;99.90;;;;;;5083966;28;20218;-74
2021/03/18 03:51:56;;;;;;;6.13;3.70;;;1.30;99.90;;;;;;5083208;28;20330;-74
2021/03/18 03:54:22;;;;;;;8.57;4.23;;;1.30;99.90;;;;;;5081308;28;20535;-74
2021/03/18 03:56:58;;;;;;;5.57;4.30;;;1.30;99.90;;;;;;5076960;28;21078;-74
2021/03/18 03:59:26;;;;;;;5.60;3.90;;;1.20;99.90;;;;;;5080238;28;20438;-75
2021/03/18 04:01:54;;;;;;;9.10;4.27;;;1.20;99.90;;;;;;5085764;28;20994;-74
2021/03/18 04:04:30;;;;;;;7.80;3.97;;;1.30;99.90;;;;;;5083801;28;20426;-74
2021/03/18 04:06:59;;;;;;;4.53;4.13;;;1.30;99.90;;;;;;5079824;28;20407;-76
2021/03/18 04:09:27;;;;;;;3.97;3.10;;;1.30;99.90;;;;;;5082767;28;20567;-74
2021/03/18 04:11:54;;;;;;;4.80;4.40;;;1.30;99.90;;;;;;5080662;28;20390;-74
2021/03/18 04:14:24;;;;;;;4.40;3.20;;;1.30;99.90;;;;;;5084806;28;20426;-74
2021/03/18 04:16:51;;;;;;;6.07;4.00;;;1.30;99.90;;;;;;5078946;28;20502;-76
2021/03/18 04:19:19;;;;;;;5.40;3.80;;;1.30;99.90;;;;;;5082532;28;20435;-72
2021/03/18 04:21:49;;;;;;;6.37;3.90;;;1.30;99.90;;;;;;5079883;28;20425;-74
2021/03/18 04:24:15;;;;;;;7.20;4.63;;;1.30;99.90;;;;;;5079299;28;20456;-74
2021/03/18 04:26:42;;;;;;;9.23;4.30;;;1.30;99.90;;;;;;5083603;28;20405;-75
2021/03/18 04:29:08;;;;;;;10.80;4.53;;;1.30;99.90;;;;;;5081775;28;20522;-75
2021/03/18 04:31:37;;;;;;;8.00;4.50;;;1.30;99.90;;;;;;5080875;28;20438;-74
2021/03/18 04:34:04;;;;;;;6.73;4.50;;;1.30;99.90;;;;;;5088220;28;20393;-74
2021/03/18 04:36:31;;;;;;;5.73;3.87;;;1.30;99.90;;;;;;5081554;28;20946;-74
2021/03/18 04:38:58;;;;;;;7.13;4.53;;;1.30;99.90;;;;;;5085395;28;20428;-74
2021/03/18 04:41:26;;;;;;;7.87;3.80;;;1.40;99.90;;;;;;5082825;28;20443;-74
2021/03/18 04:43:52;;;;;;;6.00;4.33;;;1.30;99.90;;;;;;5079452;28;20500;-74
2021/03/18 04:46:19;;;;;;;9.33;5.20;;;1.30;99.90;;;;;;5083805;28;21026;-74
2021/03/18 04:48:45;;;;;;;4.73;4.33;;;1.30;99.90;;;;;;5081103;28;20436;-75
2021/03/18 04:51:11;;;;;;;10.40;4.70;;;1.30;99.90;;;;;;5082000;28;20413;-74
2021/03/18 04:53:37;;;;;;;5.13;4.43;;;1.30;99.90;;;;;;5079701;28;20479;-74
2021/03/18 04:56:05;;;;;;;5.87;4.30;;;1.30;99.90;;;;;;5081418;28;20196;-74
2021/03/18 04:58:32;;;;;;;7.10;3.83;;;1.30;99.90;;;;;;5081283;28;20570;-74
2021/03/18 05:00:59;;;;;;;4.13;3.70;;;1.30;99.90;;;;;;5082055;28;20917;-74
2021/03/18 05:03:26;;;;;;;9.10;4.40;;;1.30;99.90;;;;;;5085486;28;20461;-74
2021/03/18 05:05:52;;;;;;;6.00;5.10;;;1.30;99.90;;;;;;5078294;28;20467;-76
2021/03/18 05:08:20;;;;;;;7.63;4.83;;;1.30;99.90;;;;;;5083172;28;20427;-75
2021/03/18 05:10:46;;;;;;;10.60;4.17;;;1.30;99.90;;;;;;5079813;28;21009;-74
2021/03/18 05:13:13;;;;;;;6.80;5.40;;;1.30;99.90;;;;;;5077974;28;20401;-75
2021/03/18 05:15:40;;;;;;;6.80;4.83;;;1.30;99.90;;;;;;5080184;28;20450;-74
2021/03/18 05:18:12;;;;;;;5.43;4.10;;;1.30;99.90;;;;;;5079537;28;20880;-76
2021/03/18 05:20:39;;;;;;;6.07;4.53;;;1.30;99.90;;;;;;5084875;28;20500;-74
2021/03/18 05:23:06;;;;;;;6.83;4.70;;;1.30;99.90;;;;;;5082599;28;20426;-76
2021/03/18 05:25:32;;;;;;;6.20;3.80;;;1.30;99.90;;;;;;5082048;28;20493;-73
2021/03/18 05:27:59;;;;;;;9.83;5.30;;;1.30;99.90;;;;;;5080144;28;20433;-74
2021/03/18 05:30:27;;;;;;;7.20;4.43;;;1.20;99.90;;;;;;5079538;28;20581;-74
2021/03/18 05:32:53;;;;;;;5.47;4.03;;;1.30;99.90;;;;;;5081583;28;20858;-72
2021/03/18 05:35:19;;;;;;;6.83;5.30;;;1.30;99.90;;;;;;5078205;28;20445;-72
2021/03/18 05:37:45;;;;;;;5.30;4.17;;;1.30;99.90;;;;;;5080896;28;20422;-73
2021/03/18 05:40:13;;;;;;;12.57;5.17;;;1.30;99.90;;;;;;5081836;28;20667;-72
2021/03/18 05:42:39;;;;;;;6.00;5.40;;;1.30;99.90;;;;;;5082038;28;20181;-73
2021/03/18 05:45:08;;;;;;;17.50;8.70;;;1.40;99.90;;;;;;5084055;28;20465;-73
2021/03/18 05:47:34;;;;;;;10.63;7.80;;;1.40;99.90;;;;;;5084766;28;20884;-73
2021/03/18 05:50:02;;;;;;;7.93;4.90;;;1.40;99.90;;;;;;5084658;28;20432;-73
2021/03/18 05:52:28;;;;;;;4.73;4.30;;;1.40;99.90;;;;;;5085308;28;20481;-73
2021/03/18 05:54:54;;;;;;;8.00;4.77;;;1.50;99.90;;;;;;5080597;28;20525;-72
2021/03/18 05:57:20;;;;;;;7.00;5.20;;;1.50;99.90;;;;;;5084879;28;20513;-72
2021/03/18 05:59:47;;;;;;;5.10;4.60;;;1.50;99.90;;;;;;5084926;28;20450;-72
2021/03/18 06:02:16;;;;;;;8.00;5.73;;;1.50;99.90;;;;;;5082762;28;20422;-74
2021/03/18 06:04:42;;;;;;;10.10;5.37;;;1.60;99.90;;;;;;5082320;28;20485;-72
2021/03/18 06:07:08;;;;;;;9.57;4.67;;;1.60;99.90;;;;;;5076138;28;20440;-73
2021/03/18 06:09:35;;;;;;;7.87;5.20;;;1.60;99.90;;;;;;5072454;28;20500;-75
2021/03/18 06:12:01;;;;;;;6.57;5.27;;;1.70;99.90;;;;;;5089517;28;20814;-72
2021/03/18 06:14:27;;;;;;;9.73;5.67;;;1.70;99.90;;;;;;5084490;28;20616;-72
2021/03/18 06:16:54;;;;;;;5.23;4.70;;;1.80;99.90;;;;;;5085319;28;20829;-72
2021/03/18 06:19:20;;;;;;;6.60;4.60;;;2.00;99.90;;;;;;5082304;28;20197;-72
2021/03/18 06:21:51;;;;;;;10.80;5.63;;;2.00;99.90;;;;;;5083325;28;20450;-73
2021/03/18 06:24:21;;;;;;;10.73;6.17;;;2.10;99.90;;;;;;5082828;28;20939;-72
2021/03/18 06:26:47;;;;;;;8.90;5.00;;;2.20;99.90;;;;;;5084146;28;20516;-73
2021/03/18 06:29:33;;;;;;;7.20;4.80;;;2.40;99.90;;;;;;5082671;28;20904;-73
2021/03/18 06:32:20;;;;;;;5.27;4.03;;;2.50;99.90;;;;;;5081571;28;20908;-71
2021/03/18 06:34:47;;;;;;;6.53;4.00;;;2.80;99.90;;;;;;5082446;28;20446;-72
2021/03/18 06:37:38;;;;;;;6.00;4.07;;;3.40;99.90;;;;;;5085342;28;20812;-72
2021/03/18 06:40:17;;;;;;;8.40;3.50;;;3.90;99.90;;;;;;5083741;28;20457;-72
2021/03/18 06:43:02;;;;;;;5.03;4.43;;;4.20;99.90;;;;;;5082462;28;20470;-75
2021/03/18 06:45:33;;;;;;;6.50;4.87;;;4.40;99.90;;;;;;5082010;28;20471;-73
2021/03/18 06:48:07;;;;;;;5.07;4.20;;;4.70;99.90;;;;;;5081163;28;20416;-72
2021/03/18 06:50:41;;;;;;;10.97;4.23;;;5.00;99.90;;;;;;5084831;28;20481;-70
2021/03/18 06:53:16;;;;;;;10.53;4.33;;;5.40;99.90;;;;;;5078338;28;20869;-70
2021/03/18 06:55:42;;;;;;;8.90;3.87;;;6.20;99.90;;;;;;5084764;28;20442;-70
2021/03/18 06:58:22;;;;;;;5.20;3.70;;;7.40;99.90;;;;;;5082684;28;20802;-72
2021/03/18 07:00:53;;;;;;;11.73;4.43;;;8.20;99.90;;;;;;5079728;28;20209;-71
2021/03/18 07:03:34;;;;;;;7.13;4.30;;;8.40;99.90;;;;;;5073164;28;20797;-70
2021/03/18 07:06:08;;;;;;;8.17;3.70;;;8.70;99.90;;;;;;5079847;28;20634;-70
2021/03/18 07:08:39;;;;;;;5.70;3.93;;;8.80;99.90;;;;;;5078821;28;20433;-69
2021/03/18 07:11:22;;;;;;;5.50;3.50;;;8.30;99.90;;;;;;5081022;28;20467;-69
2021/03/18 07:13:49;;;;;;;6.23;4.50;;;7.60;99.90;;;;;;5080649;28;20440;-70
2021/03/18 07:16:15;;;;;;;8.03;4.73;;;7.10;99.90;;;;;;5077180;28;20438;-70
2021/03/18 07:18:57;;;;;;;7.50;4.50;;;6.90;99.90;;;;;;5091104;28;20401;-70
2021/03/18 07:21:38;;;;;;;5.17;4.37;;;7.20;99.90;;;;;;5078715;28;20465;-69
2021/03/18 07:24:20;;;;;;;7.50;4.83;;;7.60;99.90;;;;;;5091597;28;20459;-70
2021/03/18 07:26:45;;;;;;;8.13;4.80;;;7.70;99.90;;;;;;5090554;28;20484;-70
2021/03/18 07:29:13;;;;;;;5.37;4.33;;;7.50;99.90;;;;;;5081813;28;20431;-71
2021/03/18 07:31:38;;;;;;;5.03;4.27;;;7.20;99.90;;;;;;5078373;28;20707;-70
2021/03/18 07:34:07;;;;;;;10.73;5.03;;;6.80;99.90;;;;;;5076720;28;20431;-70
2021/03/18 07:36:33;;;;;;;8.50;4.80;;;6.60;99.90;;;;;;5085600;28;20518;-70
2021/03/18 07:38:59;;;;;;;5.40;4.47;;;6.40;99.90;;;;;;5088842;28;20517;-71
2021/03/18 07:41:25;;;;;;;9.50;5.53;;;6.30;99.90;;;;;;5079070;28;20877;-70
2021/03/18 07:43:52;;;;;;;6.70;5.07;;;6.20;99.90;;;;;;5070511;28;20188;-70
2021/03/18 07:46:21;;;;;;;8.90;4.93;;;6.30;99.90;;;;;;5080570;28;20477;-70
2021/03/18 07:48:53;;;;;;;9.90;5.23;;;6.20;99.90;;;;;;5084623;28;20448;-70
2021/03/18 07:51:19;;;;;;;7.00;4.80;;;6.20;99.90;;;;;;5076580;28;20545;-70
2021/03/18 07:53:51;;;;;;;9.20;5.17;;;6.50;99.90;;;;;;5078065;28;20541;-71
2021/03/18 07:56:17;;;;;;;5.83;4.60;;;7.00;99.90;;;;;;5083188;28;20422;-70
2021/03/18 07:58:45;;;;;;;4.87;4.37;;;7.20;99.90;;;;;;5077410;28;20473;-71
2021/03/18 08:01:32;;;;;;;6.73;5.23;;;7.50;99.90;;;;;;5083027;28;20857;-71
2021/03/18 08:03:59;;;;;;;6.07;4.80;;;7.90;99.90;;;;;;5078938;28;20474;-70
2021/03/18 08:06:40;;;;;;;8.27;5.07;;;8.00;99.90;;;;;;5080187;28;20524;-71
2021/03/18 08:09:30;;;;;;;8.30;5.10;;;8.30;99.90;;;;;;5079942;28;20459;-71
2021/03/18 08:11:55;;;;;;;10.60;5.57;;;8.60;99.90;;;;;;5065558;28;20448;-71
2021/03/18 08:14:23;;;;;;;9.53;5.00;;;9.10;99.90;;;;;;5078959;28;20500;-71
2021/03/18 08:16:49;;;;;;;6.40;5.20;;;9.30;99.90;;;;;;5087629;28;20844;-70
2021/03/18 08:19:20;;;;;;;8.67;4.90;;;9.30;99.90;;;;;;5085913;28;20450;-71
2021/03/18 08:21:51;;;;;;;8.33;5.80;;;9.10;99.90;;;;;;5079522;28;20420;-71
2021/03/18 08:24:30;;;;;;;9.03;4.80;;;9.60;99.90;;;;;;5086315;28;21020;-72
2021/03/18 08:26:58;;;;;;;7.40;6.23;;;9.90;99.90;;;;;;5086604;28;20427;-71
2021/03/18 08:29:42;;;;;;;11.83;5.73;;;9.80;99.90;;;;;;5082856;28;20443;-71
2021/03/18 08:32:10;;;;;;;7.97;4.80;;;9.70;99.90;;;;;;5079249;28;20464;-71
2021/03/18 08:34:50;;;;;;;6.90;4.83;;;9.40;99.90;;;;;;5075715;28;20432;-71
2021/03/18 08:37:39;;;;;;;7.63;4.43;;;9.20;99.90;;;;;;5087588;28;20456;-71
2021/03/18 08:40:26;;;;;;;8.47;5.70;;;9.50;99.90;;;;;;5081583;28;20445;-71
2021/03/18 08:42:59;;;;;;;9.00;4.90;;;10.00;99.90;;;;;;5081012;28;20531;-72
2021/03/18 08:45:24;;;;;;;7.20;5.43;;;10.60;99.90;;;;;;5075363;28;20564;-72
2021/03/18 08:47:56;;;;;;;7.30;5.27;;;11.10;99.90;;;;;;5079855;28;20497;-72
2021/03/18 08:50:24;;;;;;;10.43;5.13;;;10.80;99.90;;;;;;5079414;28;20193;-71
2021/03/18 08:52:55;;;;;;;7.43;5.00;;;11.40;99.90;;;;;;5082775;28;20430;-71
2021/03/18 08:55:36;;;;;;;10.07;5.77;;;11.00;99.90;;;;;;5083991;28;20467;-73
2021/03/18 08:58:03;;;;;;;5.40;4.80;;;10.30;99.90;;;;;;5082107;28;20429;-71
2021/03/18 09:00:29;;;;;;;8.57;6.07;;;9.50;99.90;;;;;;5080074;28;21056;-72
2021/03/18 09:02:54;;;;;;;11.00;6.57;;;9.00;99.90;;;;;;5087392;28;20513;-71
2021/03/18 09:05:21;;;;;;;7.10;4.93;;;8.40;99.90;;;;;;5080266;28;20240;-72
2021/03/18 09:07:55;;;;;;;11.50;6.10;;;8.00;99.90;;;;;;5082441;28;20665;-71
2021/03/18 09:10:25;;;;;;;8.90;5.60;;;7.70;99.90;;;;;;5085350;28;20447;-71
2021/03/18 09:12:53;;;;;;;10.70;6.50;;;7.40;99.90;;;;;;5086203;28;20538;-72
2021/03/18 09:15:18;;;;;;;11.20;6.50;;;7.10;99.90;;;;;;5084004;28;20470;-71
2021/03/18 09:17:45;;;;;;;9.50;5.90;;;7.20;99.90;;;;;;5083523;28;20433;-71
2021/03/18 09:20:13;;;;;;;7.27;5.90;;;7.30;99.90;;;;;;5077119;28;20245;-71
2021/03/18 09:22:39;;;;;;;10.83;5.87;;;7.30;99.90;;;;;;5086156;28;20443;-70
2021/03/18 09:25:05;;;;;;;7.03;5.83;;;7.10;99.90;;;;;;5085032;28;20517;-71
2021/03/18 09:27:38;;;;;;;9.23;5.27;;;6.90;99.90;;;;;;5084120;28;20201;-70
2021/03/18 09:30:14;;;;;;;8.13;5.27;;;6.70;99.90;;;;;;5080995;28;20456;-70
2021/03/18 09:32:40;;;;;;;9.17;6.13;;;6.50;99.90;;;;;;5081370;28;20437;-70
2021/03/18 09:35:06;;;;;;;14.20;5.43;;;6.20;99.90;;;;;;5089846;28;20965;-71
2021/03/18 09:37:37;;;;;;;5.80;4.90;;;6.10;99.90;;;;;;5071777;28;20386;-70
2021/03/18 09:40:05;;;;;;;11.40;5.50;;;6.10;99.90;;;;;;5078085;28;20453;-70
2021/03/18 09:42:30;;;;;;;7.77;5.77;;;6.00;99.90;;;;;;5080501;28;20915;-71
2021/03/18 09:44:57;;;;;;;6.47;5.00;;;6.00;99.90;;;;;;5078195;28;20562;-71
2021/03/18 09:47:22;;;;;;;10.50;5.70;;;6.00;99.90;;;;;;5081222;28;20224;-71
2021/03/18 09:49:51;;;;;;;5.70;5.03;;;5.90;99.90;;;;;;5077771;28;20449;-71
2021/03/18 09:52:22;;;;;;;4.53;4.13;;;6.00;99.90;;;;;;5084705;28;20174;-71
2021/03/18 09:54:48;;;;;;;8.67;4.83;;;6.00;99.90;;;;;;5079266;28;20425;-71
2021/03/18 09:57:13;;;;;;;6.80;4.80;;;6.00;99.90;;;;;;5083963;28;20431;-71
2021/03/18 09:59:39;;;;;;;7.73;4.67;;;6.00;99.90;;;;;;5079866;28;20891;-72
2021/03/18 10:02:06;;;;;;;9.97;4.73;;;6.00;99.90;;;;;;5084328;28;20784;-69
2021/03/18 10:04:39;;;;;;;8.90;5.83;;;6.00;99.90;;;;;;5088711;28;20425;-71
2021/03/18 10:07:05;;;;;;;9.43;5.40;;;6.00;99.90;;;;;;5079089;28;20430;-70
2021/03/18 10:09:37;;;;;;;8.97;4.77;;;5.90;99.90;;;;;;5084762;28;20965;-70
2021/03/18 10:12:05;;;;;;;8.73;5.30;;;5.90;99.90;;;;;;5092803;28;20203;-70
2021/03/18 10:14:45;;;;;;;6.33;5.13;;;5.90;99.90;;;;;;5078645;28;20495;-70
2021/03/18 10:17:17;;;;;;;7.00;5.00;;;5.90;99.90;;;;;;5084012;28;20939;-70
2021/03/18 10:19:50;;;;;;;6.23;4.83;;;6.00;99.90;;;;;;5080318;28;20446;-72
2021/03/18 10:22:18;;;;;;;6.47;5.00;;;6.00;99.90;;;;;;5083421;28;20420;-72
2021/03/18 10:24:57;;;;;;;5.70;5.20;;;6.00;99.90;;;;;;5087034;28;20972;-73
2021/03/18 10:27:23;;;;;;;9.83;4.97;;;6.00;99.90;;;;;;5088009;28;20430;-73
2021/03/18 10:29:48;;;;;;;7.93;4.60;;;6.00;99.90;;;;;;5082711;28;20498;-73
2021/03/18 10:32:18;;;;;;;12.70;5.10;;;6.10;99.90;;;;;;5080663;28;20193;-70
2021/03/18 10:34:54;;;;;;;8.33;5.03;;;6.20;99.90;;;;;;5079551;28;20188;-72
2021/03/18 10:37:31;;;;;;;5.13;4.63;;;6.20;99.90;;;;;;5083260;28;20517;-71
2021/03/18 10:40:23;;;;;;;5.70;5.10;;;6.20;99.90;;;;;;5082645;28;20451;-72
2021/03/18 10:42:50;;;;;;;13.47;5.60;;;6.30;99.90;;;;;;5090032;28;20453;-72
2021/03/18 10:45:18;;;;;;;9.90;5.07;;;6.50;99.90;;;;;;5084813;28;20835;-73
2021/03/18 10:47:45;;;;;;;11.90;5.03;;;6.70;99.90;;;;;;5087772;28;20445;-73
2021/03/18 10:50:13;;;;;;;5.03;4.70;;;6.70;99.90;;;;;;5086095;28;20471;-72
2021/03/18 10:52:39;;;;;;;5.73;5.23;;;6.80;99.90;;;;;;5089253;28;20434;-72
2021/03/18 10:55:06;;;;;;;13.27;5.47;;;6.80;99.90;;;;;;5084883;28;20484;-72
2021/03/18 10:57:32;;;;;;;7.70;4.70;;;6.70;99.90;;;;;;5083261;28;20516;-72
2021/03/18 10:59:58;;;;;;;5.63;4.43;;;6.70;99.90;;;;;;5082774;28;20675;-72
2021/03/18 11:02:25;;;;;;;6.77;4.53;;;6.50;99.90;;;;;;5081016;28;20183;-71
2021/03/18 11:05:02;;;;;;;6.20;4.37;;;6.40;99.90;;;;;;5083849;28;20596;-72
2021/03/18 11:07:29;;;;;;;6.50;4.50;;;6.40;99.90;;;;;;5081717;28;20448;-72
2021/03/18 11:10:13;;;;;;;4.33;3.93;;;6.60;99.90;;;;;;5080811;28;20808;-72
2021/03/18 11:12:40;;;;;;;6.70;4.40;;;6.80;99.90;;;;;;5084297;28;20505;-72
2021/03/18 11:15:08;;;;;;;7.10;4.80;;;7.20;99.90;;;;;;5093022;28;20441;-72
2021/03/18 11:17:34;;;;;;;7.27;4.00;;;7.80;99.90;;;;;;5092769;28;20789;-72
2021/03/18 11:20:16;;;;;;;5.43;4.80;;;7.90;99.90;;;;;;5081522;28;20454;-72
2021/03/18 11:22:42;;;;;;;5.53;3.97;;;8.00;99.90;;;;;;5085182;28;20423;-71
2021/03/18 11:25:09;;;;;;;7.80;3.97;;;8.10;99.90;;;;;;5081563;28;20555;-71
2021/03/18 11:27:35;;;;;;;8.70;5.20;;;8.00;99.90;;;;;;5090391;28;20427;-70
2021/03/18 11:30:01;;;;;;;5.03;3.97;;;7.90;99.90;;;;;;5081490;28;20452;-72
2021/03/18 11:32:26;;;;;;;9.87;4.90;;;8.00;99.90;;;;;;5079665;28;20465;-72
2021/03/18 11:34:55;;;;;;;7.60;4.33;;;7.80;99.90;;;;;;5091874;28;20264;-71
2021/03/18 11:37:21;;;;;;;4.30;3.90;;;7.60;99.90;;;;;;5081025;28;20189;-72
2021/03/18 11:39:46;;;;;;;4.20;3.80;;;7.60;99.90;;;;;;5084173;28;20442;-71
2021/03/18 11:42:12;;;;;;;7.23;3.93;;;7.50;99.90;;;;;;5080269;28;20189;-71
2021/03/18 11:44:38;;;;;;;4.43;4.07;;;7.50;99.90;;;;;;5080863;28;20239;-72
2021/03/18 11:47:11;;;;;;;4.50;4.10;;;7.40;99.90;;;;;;5080089;28;20198;-71
2021/03/18 11:49:39;;;;;;;7.37;4.40;;;7.20;99.90;;;;;;5079199;28;20173;-71
2021/03/18 11:52:06;;;;;;;6.03;3.37;;;7.10;99.90;;;;;;5090010;28;20520;-72
2021/03/18 11:54:32;;;;;;;5.50;3.97;;;6.90;99.90;;;;;;5082398;28;20434;-72
2021/03/18 11:56:58;;;;;;;5.13;3.70;;;6.50;99.90;;;;;;5084365;28;20942;-72
2021/03/18 11:59:24;;;;;;;8.50;3.97;;;6.50;99.90;;;;;;5086428;28;20503;-73
2021/03/18 12:01:50;;;;;;;8.20;3.80;;;6.50;99.90;;;;;;5088080;28;20176;-72
2021/03/18 12:04:16;;;;;;;5.03;4.53;;;6.60;99.90;;;;;;5072166;28;20518;-71
2021/03/18 12:06:41;;;;;;;3.80;3.47;;;6.70;99.90;;;;;;5086040;28;20208;-71
2021/03/18 12:09:07;;;;;;;5.90;3.90;;;6.90;99.90;;;;;;5086592;28;20199;-71
2021/03/18 12:11:33;;;;;;;7.30;4.20;;;7.10;99.90;;;;;;5088096;28;20200;-71
2021/03/18 12:13:59;;;;;;;3.37;3.07;;;7.10;99.90;;;;;;5089832;28;20179;-71
2021/03/18 12:16:24;;;;;;;6.70;3.77;;;7.10;99.90;;;;;;5082467;28;20435;-71
2021/03/18 12:18:50;;;;;;;3.00;2.77;;;7.00;99.90;;;;;;5086309;28;20209;-71
2021/03/18 12:21:15;;;;;;;5.80;3.97;;;7.30;99.90;;;;;;5081522;28;20767;-72
2021/03/18 12:23:41;;;;;;;7.20;4.37;;;7.30;99.90;;;;;;5087105;28;20230;-72
2021/03/18 12:26:07;;;;;;;4.67;4.13;;;7.30;99.90;;;;;;5080316;28;20719;-72
2021/03/18 12:28:32;;;;;;;4.33;3.93;;;7.40;99.90;;;;;;5089427;28;20173;-72
2021/03/18 12:30:58;;;;;;;6.00;4.50;;;7.30;99.90;;;;;;5091502;28;21036;-72
2021/03/18 12:33:23;;;;;;;9.13;4.00;;;7.30;99.90;;;;;;5090499;28;20195;-72
2021/03/18 12:35:51;;;;;;;4.30;3.80;;;7.20;99.90;;;;;;5089505;28;20180;-72
2021/03/18 12:38:20;;;;;;;5.33;4.17;;;7.20;99.90;;;;;;5085803;28;20196;-71
2021/03/18 12:40:46;;;;;;;6.30;4.03;;;7.40;99.90;;;;;;5091681;28;20478;-71
2021/03/18 12:43:12;;;;;;;5.50;4.20;;;7.60;99.90;;;;;;5090606;28;20445;-71
2021/03/18 12:45:40;;;;;;;10.10;4.23;;;7.70;99.90;;;;;;5088123;28;20488;-71
2021/03/18 12:48:06;;;;;;;6.70;4.60;;;7.90;99.90;;;;;;5093693;28;20183;-72
2021/03/18 12:50:31;;;;;;;12.33;5.87;;;8.00;99.90;;;;;;5079254;28;20922;-71
2021/03/18 12:52:57;;;;;;;7.10;4.60;;;8.00;99.90;;;;;;5090343;28;20446;-71
2021/03/18 12:55:24;;;;;;;4.77;4.20;;;8.10;99.90;;;;;;5086253;28;20228;-73
2021/03/18 12:57:53;;;;;;;5.40;5.00;;;7.90;99.90;;;;;;5079250;28;20458;-71
2021/03/18 13:00:22;;;;;;;7.50;4.57;;;7.80;99.90;;;;;;5079145;28;20514;-71
2021/03/18 13:02:48;;;;;;;6.40;4.30;;;7.60;99.90;;;;;;5080818;28;20446;-71
2021/03/18 13:05:13;;;;;;;4.63;3.80;;;7.30;99.90;;;;;;5076890;28;20472;-71